createdAt,value
2018-07-11T00:00:58.412Z,32.73
2018-07-11T00:03:52.397Z,39.83
2018-07-11T00:06:23.040Z,36.73
2018-07-11T00:08:52.359Z,40.80
2018-07-11T00:11:22.076Z,35.00
2018-07-11T00:13:51.250Z,43.47
2018-07-11T00:16:20.062Z,39.27
2018-07-11T00:18:49.729Z,40.73
2018-07-11T00:21:18.948Z,37.37
2018-07-11T00:23:48.694Z,42.93
2018-07-11T00:26:24.898Z,40.23
2018-07-11T00:28:54.607Z,38.03
2018-07-11T00:31:23.855Z,37.33
2018-07-11T00:33:53.376Z,39.37
2018-07-11T00:36:23.150Z,36.03
2018-07-11T00:38:52.410Z,34.70
2018-07-11T00:41:21.685Z,39.73
2018-07-11T00:43:51.458Z,35.50
2018-07-11T00:46:20.667Z,31.97
2018-07-11T00:48:50.062Z,47.37
2018-07-11T00:51:19.780Z,34.27
2018-07-11T00:53:50.065Z,32.93
2018-07-11T00:56:19.304Z,46.53
2018-07-11T00:58:54.794Z,41.23
2018-07-11T01:01:24.333Z,37.50
2018-07-11T01:04:01.688Z,35.43
2018-07-11T01:06:31.339Z,35.30
2018-07-11T01:09:00.420Z,28.30
2018-07-11T01:11:34.456Z,39.20
2018-07-11T01:14:03.771Z,44.90
2018-07-11T01:16:33.638Z,57.33
2018-07-11T01:19:07.795Z,40.07
2018-07-11T01:21:37.470Z,50.07
2018-07-11T01:24:07.021Z,68.23
2018-07-11T01:26:38.165Z,44.67
2018-07-11T01:29:09.067Z,42.23
2018-07-11T01:31:38.488Z,51.80
2018-07-11T01:34:07.705Z,45.47
2018-07-11T01:36:36.872Z,45.70
2018-07-11T01:39:05.765Z,52.50
2018-07-11T01:41:34.833Z,50.70
2018-07-11T01:44:04.426Z,64.33
2018-07-11T01:46:40.159Z,64.83
2018-07-11T01:49:09.506Z,57.83
2018-07-11T01:52:55.919Z,64.37
2018-07-11T01:55:25.856Z,38.57
2018-07-11T01:57:59.143Z,39.97
2018-07-11T02:00:29.319Z,43.17
2018-07-11T02:02:58.630Z,45.23
2018-07-11T02:05:28.341Z,52.27
2018-07-11T02:07:57.584Z,43.10
2018-07-11T02:10:27.466Z,45.37
2018-07-11T02:12:56.341Z,51.90
2018-07-11T02:15:26.438Z,60.23
2018-07-11T02:17:55.757Z,47.70
2018-07-11T02:20:25.017Z,51.27
2018-07-11T02:22:54.522Z,47.80
2018-07-11T02:25:23.831Z,64.97
2018-07-11T02:27:54.232Z,44.37
2018-07-11T02:30:23.759Z,45.90
2018-07-11T02:32:53.206Z,40.77
2018-07-11T02:35:22.410Z,44.33
2018-07-11T02:37:51.588Z,46.30
2018-07-11T02:40:20.810Z,47.80
2018-07-11T02:42:50.855Z,41.07
2018-07-11T02:45:20.178Z,37.70
2018-07-11T02:47:49.711Z,41.23
2018-07-11T02:50:19.813Z,45.10
2018-07-11T02:52:49.761Z,49.57
2018-07-11T02:55:21.344Z,43.33
2018-07-11T02:57:51.468Z,41.57
2018-07-11T03:00:20.928Z,45.80
2018-07-11T03:02:50.342Z,47.87
2018-07-11T03:08:54.661Z,73.67
2018-07-11T03:11:24.029Z,79.20
2018-07-11T03:13:53.786Z,50.43
2018-07-11T03:16:23.111Z,46.93
2018-07-11T03:18:52.593Z,50.97
2018-07-11T03:21:22.097Z,51.07
2018-07-11T03:23:51.796Z,46.03
2018-07-11T03:26:21.014Z,48.40
2018-07-11T03:28:50.135Z,55.67
2018-07-11T03:31:19.448Z,49.57
2018-07-11T03:33:48.766Z,42.00
2018-07-11T03:36:18.043Z,54.00
2018-07-11T03:38:47.934Z,39.00
2018-07-11T03:41:17.132Z,47.13
2018-07-11T03:43:46.432Z,45.33
2018-07-11T03:46:15.770Z,43.60
2018-07-11T03:48:44.933Z,53.30
2018-07-11T03:51:14.106Z,53.13
2018-07-11T03:53:43.531Z,51.97
2018-07-11T03:56:12.883Z,50.17
2018-07-11T03:58:42.188Z,43.53
2018-07-11T04:01:11.455Z,41.57
2018-07-11T04:03:40.969Z,46.90
2018-07-11T04:06:10.190Z,54.50
2018-07-11T04:08:39.581Z,55.63
2018-07-11T04:11:08.923Z,53.97
2018-07-11T04:13:38.259Z,65.93
2018-07-11T04:19:43.568Z,55.47
2018-07-11T04:22:12.703Z,66.10
2018-07-11T04:24:42.627Z,54.57
2018-07-11T04:27:12.741Z,63.50
2018-07-11T04:29:41.867Z,70.83
2018-07-11T04:32:11.346Z,57.07
2018-07-11T04:34:40.641Z,64.67
2018-07-11T04:37:09.972Z,74.10
2018-07-11T04:39:39.204Z,69.77
2018-07-11T04:42:08.860Z,76.77
2018-07-11T04:44:38.035Z,68.07
2018-07-11T04:47:07.330Z,61.53
2018-07-11T04:49:36.626Z,58.87
2018-07-11T04:52:06.301Z,58.87
2018-07-11T04:54:36.220Z,48.33
2018-07-11T04:57:05.366Z,52.00
2018-07-11T04:59:34.584Z,45.23
2018-07-11T05:02:03.885Z,47.13
2018-07-11T05:04:33.163Z,44.87
2018-07-11T05:07:07.108Z,43.13
2018-07-11T05:09:36.250Z,38.87
2018-07-11T05:12:05.505Z,39.20
2018-07-11T05:14:35.562Z,41.23
2018-07-11T05:17:05.008Z,37.00
2018-07-11T05:19:33.815Z,40.00
2018-07-11T05:22:02.895Z,47.13
2018-07-11T05:24:32.822Z,38.90
2018-07-11T05:27:02.858Z,39.00
2018-07-11T05:29:32.331Z,40.70
2018-07-11T05:32:02.298Z,38.07
2018-07-11T05:34:31.664Z,39.27
2018-07-11T05:37:01.237Z,35.63
2018-07-11T05:39:30.721Z,39.00
2018-07-11T05:41:59.963Z,31.57
2018-07-11T05:44:29.071Z,33.97
2018-07-11T05:47:05.145Z,34.10
2018-07-11T05:49:35.742Z,33.83
2018-07-11T05:52:04.928Z,32.37
2018-07-11T05:54:35.059Z,31.57
2018-07-11T05:57:05.293Z,33.83
2018-07-11T05:59:34.809Z,36.17
2018-07-11T06:02:05.951Z,29.73
2018-07-11T06:04:35.287Z,33.00
2018-07-11T06:07:05.109Z,33.03
2018-07-11T06:09:55.523Z,25.50
2018-07-11T06:12:24.855Z,27.40
2018-07-11T06:14:54.060Z,28.90
2018-07-11T06:17:23.190Z,21.70
2018-07-11T06:19:52.440Z,28.43
2018-07-11T06:22:21.747Z,21.43
2018-07-11T06:24:50.869Z,25.77
2018-07-11T06:27:20.254Z,22.83
2018-07-11T06:29:49.343Z,27.40
2018-07-11T06:32:18.783Z,24.80
2018-07-11T06:34:47.861Z,22.07
2018-07-11T06:37:17.034Z,21.23
2018-07-11T06:39:46.321Z,20.80
2018-07-11T06:42:15.951Z,21.93
2018-07-11T06:44:45.624Z,22.83
2018-07-11T06:47:15.886Z,19.37
2018-07-11T06:49:46.632Z,20.97
2018-07-11T06:52:16.432Z,16.73
2018-07-11T06:54:45.688Z,19.93
2018-07-11T06:57:14.940Z,18.20
2018-07-11T06:59:44.208Z,13.67
2018-07-11T07:02:12.989Z,16.63
2018-07-11T07:04:42.094Z,16.53
2018-07-11T07:07:11.288Z,14.07
2018-07-11T07:09:41.288Z,16.07
2018-07-11T07:12:10.480Z,13.37
2018-07-11T07:14:39.704Z,15.63
2018-07-11T07:17:08.772Z,14.00
2018-07-11T07:19:37.990Z,14.50
2018-07-11T07:22:07.209Z,14.77
2018-07-11T07:24:36.291Z,14.27
2018-07-11T07:27:05.503Z,14.73
2018-07-11T07:29:34.915Z,13.30
2018-07-11T07:32:04.104Z,16.03
2018-07-11T07:34:33.039Z,12.63
2018-07-11T07:37:02.334Z,12.57
2018-07-11T07:39:32.428Z,12.50
2018-07-11T07:42:02.779Z,15.07
2018-07-11T07:44:31.928Z,15.93
2018-07-11T07:47:02.203Z,11.63
2018-07-11T07:49:32.497Z,11.47
2018-07-11T07:52:01.771Z,14.13
2018-07-11T07:54:31.707Z,12.87
2018-07-11T07:57:01.206Z,11.53
2018-07-11T07:59:30.047Z,10.43
2018-07-11T08:01:59.369Z,10.27
2018-07-11T08:04:28.482Z,9.33
2018-07-11T08:06:57.893Z,9.03
2018-07-11T08:09:27.057Z,8.50
2018-07-11T08:11:56.448Z,9.50
2018-07-11T08:14:25.545Z,7.67
2018-07-11T08:16:54.732Z,7.03
2018-07-11T08:19:23.834Z,8.03
2018-07-11T08:21:53.385Z,7.73
2018-07-11T08:25:05.866Z,9.30
2018-07-11T08:28:20.839Z,11.03
2018-07-11T08:35:12.414Z,7.50
2018-07-11T08:38:21.124Z,9.77
2018-07-11T08:41:38.493Z,9.50
2018-07-11T08:44:22.800Z,9.40
2018-07-11T08:49:08.699Z,8.67
2018-07-11T08:52:48.432Z,5.50
2018-07-11T08:55:34.173Z,9.60
2018-07-11T09:00:15.163Z,7.47
2018-07-11T09:02:57.015Z,6.83
2018-07-11T09:05:50.784Z,5.87
2018-07-11T09:08:36.628Z,5.07
2018-07-11T09:12:27.786Z,6.97
2018-07-11T09:18:12.230Z,6.33
2018-07-11T09:20:53.240Z,4.83
2018-07-11T09:23:47.282Z,4.50
2018-07-11T09:26:16.468Z,5.07
2018-07-11T09:28:45.676Z,6.73
2018-07-11T09:31:14.768Z,3.37
2018-07-11T09:33:44.234Z,3.73
2018-07-11T09:36:13.375Z,3.73
2018-07-11T09:38:42.508Z,4.60
2018-07-11T09:41:11.647Z,4.83
2018-07-11T09:43:40.863Z,5.90
2018-07-11T09:46:10.100Z,3.73
2018-07-11T09:48:39.344Z,3.87
2018-07-11T09:51:09.228Z,3.93
2018-07-11T09:53:38.566Z,2.60
2018-07-11T09:56:08.006Z,2.60
2018-07-11T09:58:37.340Z,3.13
2018-07-11T10:01:11.804Z,4.00
2018-07-11T10:03:41.658Z,5.20
2018-07-11T10:06:11.840Z,4.10
2018-07-11T10:08:41.062Z,3.70
2018-07-11T10:11:10.277Z,4.73
2018-07-11T10:13:46.358Z,3.20
2018-07-11T10:16:16.521Z,4.00
2018-07-11T10:18:54.284Z,3.93
2018-07-11T10:21:23.724Z,4.30
2018-07-11T10:23:54.420Z,4.00
2018-07-11T10:26:24.224Z,4.30
2018-07-11T10:28:53.929Z,4.57
2018-07-11T10:31:23.500Z,4.53
2018-07-11T10:33:52.821Z,3.63
2018-07-11T10:36:22.044Z,3.83
2018-07-11T10:38:51.431Z,3.30
2018-07-11T10:41:20.879Z,3.67
2018-07-11T10:43:50.575Z,3.40
2018-07-11T10:46:19.961Z,4.00
2018-07-11T10:48:49.297Z,3.67
2018-07-11T10:51:18.840Z,7.50
2018-07-11T10:53:48.088Z,4.17
2018-07-11T10:56:17.418Z,3.80
2018-07-11T10:58:47.010Z,4.70
2018-07-11T11:01:16.707Z,3.03
2018-07-11T11:03:46.004Z,4.10
2018-07-11T11:06:15.463Z,3.80
2018-07-11T11:08:44.910Z,4.33
2018-07-11T11:11:14.116Z,4.10
2018-07-11T11:13:43.565Z,5.37
2018-07-11T11:16:12.782Z,5.53
2018-07-11T11:18:41.962Z,4.00
2018-07-11T11:21:11.456Z,3.97
2018-07-11T11:23:40.828Z,2.30
2018-07-11T11:26:09.943Z,5.10
2018-07-11T11:28:39.284Z,3.17
2018-07-11T11:31:08.436Z,4.87
2018-07-11T11:33:37.576Z,3.30
2018-07-11T11:36:06.857Z,2.10
2018-07-11T11:38:36.416Z,2.43
2018-07-11T11:41:05.733Z,3.70
2018-07-11T11:43:34.863Z,5.00
2018-07-11T11:46:04.216Z,2.53
2018-07-11T11:48:33.493Z,4.40
2018-07-11T11:51:02.859Z,3.17
2018-07-11T11:53:32.055Z,4.03
2018-07-11T11:56:02.248Z,3.07
2018-07-11T11:58:31.124Z,4.97
2018-07-11T12:01:00.405Z,2.70
2018-07-11T12:03:29.640Z,3.93
2018-07-11T12:05:58.971Z,3.50
2018-07-11T12:08:28.090Z,2.93
2018-07-11T12:10:57.398Z,2.83
2018-07-11T12:13:26.596Z,2.50
2018-07-11T12:15:55.797Z,3.23
2018-07-11T12:18:25.750Z,4.07
2018-07-11T12:20:57.102Z,2.83
2018-07-11T12:23:26.380Z,3.23
2018-07-11T12:25:59.654Z,3.80
2018-07-11T12:28:28.831Z,3.80
2018-07-11T12:30:58.088Z,3.13
2018-07-11T12:33:27.518Z,4.07
2018-07-11T12:35:56.855Z,2.87
2018-07-11T12:38:26.354Z,4.23
2018-07-11T12:40:55.543Z,3.47
2018-07-11T12:43:25.403Z,2.00
2018-07-11T12:45:55.254Z,3.67
2018-07-11T12:48:29.667Z,3.77
2018-07-11T12:50:58.860Z,3.97
2018-07-11T12:53:28.732Z,2.47
2018-07-11T12:55:58.239Z,4.07
2018-07-11T12:58:27.801Z,2.83
2018-07-11T13:00:57.106Z,4.72
2018-07-11T13:03:26.458Z,2.98
2018-07-11T13:05:55.790Z,4.33
2018-07-11T13:08:25.014Z,3.75
2018-07-11T13:10:54.598Z,5.53
2018-07-11T13:13:23.918Z,3.58
2018-07-11T13:15:53.156Z,3.37
2018-07-11T13:18:22.587Z,3.77
2018-07-11T13:20:51.755Z,3.70
2018-07-11T13:23:21.260Z,6.13
2018-07-11T13:25:50.580Z,5.77
2018-07-11T13:28:19.330Z,3.50
2018-07-11T13:30:48.438Z,3.77
2018-07-11T13:33:19.328Z,5.80
2018-07-11T13:35:48.507Z,4.70
2018-07-11T13:38:17.785Z,4.33
2018-07-11T13:40:46.998Z,4.47
2018-07-11T13:43:15.769Z,4.53
2018-07-11T13:45:44.731Z,4.70
2018-07-11T13:48:14.053Z,6.73
2018-07-11T13:50:43.456Z,4.47
2018-07-11T13:53:12.736Z,3.95
2018-07-11T13:55:41.962Z,4.57
2018-07-11T13:58:11.180Z,6.75
2018-07-11T14:00:40.384Z,3.70
2018-07-11T14:03:09.614Z,4.67
2018-07-11T14:05:39.019Z,4.78
2018-07-11T14:08:08.286Z,4.23
2018-07-11T14:10:37.678Z,5.87
2018-07-11T14:13:06.993Z,9.10
2018-07-11T14:15:36.820Z,9.33
2018-07-11T14:18:06.254Z,4.70
2018-07-11T14:20:36.618Z,5.97
2018-07-11T14:23:07.811Z,6.13
2018-07-11T14:25:41.331Z,4.20
2018-07-11T14:28:10.722Z,3.97
2018-07-11T14:30:40.155Z,4.92
2018-07-11T14:33:10.108Z,4.30
2018-07-11T14:35:39.533Z,5.03
2018-07-11T14:38:08.810Z,4.17
2018-07-11T14:40:38.218Z,4.53
2018-07-11T14:43:07.570Z,5.87
2018-07-11T14:45:36.692Z,5.77
2018-07-11T14:48:15.160Z,7.67
2018-07-11T14:50:45.440Z,6.70
2018-07-11T14:53:14.954Z,4.73
2018-07-11T14:55:50.780Z,8.23
2018-07-11T14:58:20.050Z,7.67
2018-07-11T15:00:49.341Z,6.47
2018-07-11T15:03:18.467Z,8.80
2018-07-11T15:05:47.608Z,7.73
2018-07-11T15:08:16.944Z,7.13
2018-07-11T15:10:45.943Z,11.67
2018-07-11T15:13:15.103Z,6.47
2018-07-11T15:15:44.296Z,8.57
2018-07-11T15:18:14.208Z,8.03
2018-07-11T15:20:43.381Z,7.40
2018-07-11T15:23:12.632Z,7.40
2018-07-11T15:25:41.979Z,5.33
2018-07-11T15:28:11.229Z,6.17
2018-07-11T15:30:40.704Z,6.67
2018-07-11T15:33:09.797Z,5.50
2018-07-11T15:35:39.627Z,7.47
2018-07-11T15:38:08.796Z,6.93
2018-07-11T15:40:38.574Z,5.30
2018-07-11T15:43:07.918Z,7.07
2018-07-11T15:45:37.094Z,6.30
2018-07-11T15:48:06.462Z,4.43
2018-07-11T15:50:35.908Z,7.80
2018-07-11T15:53:05.240Z,9.43
2018-07-11T15:55:35.426Z,7.87
2018-07-11T15:58:12.357Z,7.27
2018-07-11T16:00:42.920Z,6.10
2018-07-11T16:03:13.811Z,7.30
2018-07-11T16:05:46.131Z,6.00
2018-07-11T16:08:19.616Z,5.20
2018-07-11T16:10:51.419Z,5.62
2018-07-11T16:13:21.752Z,5.83
2018-07-11T16:15:51.555Z,4.42
2018-07-11T16:18:20.799Z,5.05
2018-07-11T16:20:50.089Z,7.97
2018-07-11T16:23:19.429Z,6.72
2018-07-11T16:25:48.696Z,5.72
2018-07-11T16:28:17.877Z,6.10
2018-07-11T16:30:47.674Z,5.30
2018-07-11T16:33:16.897Z,6.50
2018-07-11T16:35:46.140Z,5.70
2018-07-11T16:38:15.404Z,6.30
2018-07-11T16:40:44.667Z,6.03
2018-07-11T16:43:14.912Z,6.40
2018-07-11T16:45:44.539Z,7.37
2018-07-11T16:48:14.236Z,6.17
2018-07-11T16:50:43.460Z,8.67
2018-07-11T16:53:12.841Z,7.23
2018-07-11T16:55:42.036Z,7.40
2018-07-11T16:58:13.458Z,6.97
2018-07-11T17:00:46.005Z,7.73
2018-07-11T17:03:15.585Z,7.37
2018-07-11T17:05:51.171Z,8.37
2018-07-11T17:08:27.965Z,8.63
2018-07-11T17:11:16.100Z,7.67
2018-07-11T17:13:56.113Z,6.87
2018-07-11T17:16:31.736Z,7.60
2018-07-11T17:19:05.613Z,8.63
2018-07-11T17:21:40.976Z,8.53
2018-07-11T17:24:11.266Z,5.83
2018-07-11T17:26:44.581Z,6.93
2018-07-11T17:29:19.103Z,10.07
2018-07-11T17:31:50.448Z,7.90
2018-07-11T17:34:19.876Z,8.47
2018-07-11T17:36:52.424Z,10.00
2018-07-11T17:39:21.830Z,6.53
2018-07-11T17:41:51.392Z,7.77
2018-07-11T17:44:21.186Z,7.53
2018-07-11T17:46:51.256Z,5.77
2018-07-11T17:49:26.735Z,8.03
2018-07-11T17:52:04.375Z,8.43
2018-07-11T17:54:52.248Z,9.67
2018-07-11T17:57:26.595Z,9.47
2018-07-11T18:00:09.291Z,7.80
2018-07-11T18:02:47.059Z,7.90
2018-07-11T18:05:24.197Z,7.00
2018-07-11T18:07:53.767Z,7.33
2018-07-11T18:10:42.904Z,7.37
2018-07-11T18:13:47.331Z,10.13
2018-07-11T18:16:30.666Z,11.00
2018-07-11T18:19:10.391Z,6.43
2018-07-11T18:21:47.170Z,8.83
2018-07-11T18:27:33.797Z,8.47
2018-07-11T18:30:34.667Z,7.73
2018-07-11T18:33:15.892Z,6.87
2018-07-11T18:35:56.148Z,8.07
2018-07-11T18:39:37.980Z,7.43
2018-07-11T18:44:22.915Z,8.20
2018-07-11T18:46:58.967Z,6.60
2018-07-11T18:49:36.591Z,7.23
2018-07-11T18:52:49.120Z,7.40
2018-07-11T18:55:28.292Z,8.20
2018-07-11T19:00:17.334Z,5.77
2018-07-11T19:02:50.134Z,6.80
2018-07-11T19:05:27.501Z,9.00
2018-07-11T19:09:12.824Z,5.97
2018-07-11T19:12:00.279Z,10.43
2018-07-11T19:14:40.173Z,7.57
2018-07-11T19:17:18.887Z,9.20
2018-07-11T19:19:54.494Z,7.03
2018-07-11T19:22:33.465Z,6.90
2018-07-11T19:25:38.029Z,6.90
2018-07-11T19:28:16.741Z,5.60
2018-07-11T19:30:57.190Z,6.77
2018-07-11T19:33:28.809Z,5.87
2018-07-11T19:36:40.243Z,5.23
2018-07-11T19:39:19.510Z,7.20
2018-07-11T19:41:59.662Z,6.63
2018-07-11T19:44:38.658Z,6.53
2018-07-11T19:50:23.227Z,7.53
2018-07-11T19:52:59.100Z,7.20
2018-07-11T19:55:44.016Z,5.80
2018-07-11T19:58:17.971Z,7.63
2018-07-11T20:00:47.138Z,5.70
2018-07-11T20:03:16.592Z,6.63
2018-07-11T20:05:53.340Z,5.53
2018-07-11T20:08:15.153Z,6.73
2018-07-11T20:10:44.034Z,6.33
2018-07-11T20:13:13.149Z,6.30
2018-07-11T20:15:42.331Z,5.27
2018-07-11T20:18:11.529Z,6.40
2018-07-11T20:20:40.809Z,9.27
2018-07-11T20:23:10.325Z,6.50
2018-07-11T20:25:39.489Z,6.90
2018-07-11T20:28:09.605Z,5.67
2018-07-11T20:30:38.741Z,6.40
2018-07-11T20:33:07.814Z,9.33
2018-07-11T20:35:37.236Z,5.40
2018-07-11T20:38:07.217Z,8.17
2018-07-11T20:40:36.620Z,8.73
2018-07-11T20:43:05.954Z,5.93
2018-07-11T20:45:35.993Z,6.43
2018-07-11T20:48:05.184Z,7.40
2018-07-11T20:50:34.383Z,6.63
2018-07-11T20:53:03.547Z,5.07
2018-07-11T20:55:35.472Z,8.07
2018-07-11T20:58:16.627Z,10.00
2018-07-11T21:00:57.152Z,7.87
2018-07-11T21:07:47.157Z,11.33
2018-07-11T21:12:30.354Z,5.80
2018-07-11T21:16:33.298Z,8.90
2018-07-11T21:19:04.789Z,9.80
2018-07-11T21:21:34.827Z,10.67
2018-07-11T21:24:05.000Z,6.47
2018-07-11T21:26:34.659Z,8.13
2018-07-11T21:29:03.957Z,8.07
2018-07-11T21:31:33.412Z,11.40
2018-07-11T21:34:02.514Z,9.13
2018-07-11T21:36:32.554Z,8.63
2018-07-11T21:39:01.920Z,9.10
2018-07-11T21:41:31.087Z,7.53
2018-07-11T21:44:00.351Z,7.53
2018-07-11T21:46:29.613Z,8.50
2018-07-11T21:48:58.901Z,7.60
2018-07-11T21:51:28.109Z,8.90
2018-07-11T21:53:58.129Z,7.10
2018-07-11T21:56:27.230Z,9.60
2018-07-11T21:58:56.611Z,7.90
2018-07-11T22:01:25.886Z,7.53
2018-07-11T22:03:55.055Z,10.23
2018-07-11T22:06:24.867Z,12.07
2018-07-11T22:08:54.090Z,11.43
2018-07-11T22:11:23.229Z,13.23
2018-07-11T22:13:52.384Z,10.37
2018-07-11T22:16:21.688Z,10.37
2018-07-11T22:18:50.953Z,10.47
2018-07-11T22:21:18.893Z,9.93
2018-07-11T22:23:46.837Z,7.90
2018-07-11T22:26:14.807Z,9.53
2018-07-11T22:28:42.720Z,8.63
2018-07-11T22:31:10.657Z,11.73
2018-07-11T22:33:38.791Z,13.90
2018-07-11T22:36:06.907Z,17.40
2018-07-11T22:38:34.879Z,12.27
2018-07-11T22:41:02.811Z,12.13
2018-07-11T22:43:31.179Z,15.07
2018-07-11T22:45:59.047Z,16.83
2018-07-11T22:48:27.042Z,16.17
2018-07-11T22:50:55.133Z,14.83
2018-07-11T22:55:58.038Z,22.27
2018-07-11T22:58:37.752Z,19.70
2018-07-11T23:01:20.613Z,20.90
2018-07-11T23:04:06.419Z,21.63
2018-07-11T23:06:35.377Z,22.10
2018-07-11T23:09:04.418Z,23.67
2018-07-11T23:11:33.284Z,26.00
2018-07-11T23:14:01.144Z,28.63
2018-07-11T23:16:29.089Z,26.70
2018-07-11T23:18:57.047Z,26.47
2018-07-11T23:21:25.169Z,30.57
2018-07-11T23:23:53.139Z,26.03
2018-07-11T23:26:21.197Z,22.73
2018-07-11T23:28:49.231Z,25.87
2018-07-11T23:31:17.174Z,31.00
2018-07-11T23:33:45.146Z,25.60
2018-07-11T23:36:13.096Z,32.27
2018-07-11T23:38:41.170Z,27.70
2018-07-11T23:41:09.122Z,32.30
2018-07-11T23:43:37.072Z,28.33
2018-07-11T23:46:05.029Z,25.20
2018-07-11T23:48:32.968Z,29.63
2018-07-11T23:51:00.938Z,23.67
2018-07-11T23:53:28.879Z,23.27
2018-07-11T23:55:57.090Z,26.43
2018-07-11T23:58:25.143Z,30.73
